FNKU

Kuito Airport

Kuito, Angola
TAF FNKU 171045Z 1712/1724 10008KT 9999 FEW015 SCT040 TEMPO 1712/1718 4000 TSRA SCT018 FEW023CB BKN050
Issued Valid From Valid To
Dec-17 @ 10:45 UTC
(2 hours ago)
Dec-17 @ 12:00 UTC
(an hour ago)
Dec-18 @ 00:00 UTC
(in 11 hours)
Dec-17 @ 12:00 to Dec-18 @ 00:00
TAF FNKU 171045Z 1712/1724 10008KT 9999 FEW015 SCT040
Wind Visibility Clouds
100° at 8 knots 10,000+ meters
  • Few at 1,500' AGL
  • Scattered at 4,000' AGL
Temporary Dec-17 @ 12:00 to Dec-17 @ 18:00
TEMPO 1712/1718 4000 TSRA SCT018 FEW023CB BKN050
Visibility Clouds Conditions
4,007 meters
  • Scattered at 1,800' AGL
  • Few at 2,300' AGL
  • Broken at 5,000' AGL
  • Thunderstorm
  • Rain
TAF FNKU 171045Z 1712/1724 10008KT 9999 FEW015 SCT040 TEMPO 1712/1718 4000 TSRA SCT018 FEW023CB BKN050
Issued Dec-17 @ 10:45 UTC
(2 hours ago)
Valid From Dec-17 @ 12:00 UTC
(an hour ago)
Valid To Dec-18 @ 00:00 UTC
(in 11 hours)
Dec-17 @ 12:00 - Dec-18 @ 00:00
Wind Visibility
100° at 8 knots 10,000+ meters
Clouds
  • Few at 1,500' AGL
  • Scattered at 4,000' AGL
Temporary Dec-17 @ 12:00 - Dec-17 @ 18:00
Clouds
  • Scattered at 1,800' AGL
  • Few at 2,300' AGL
  • Broken at 5,000' AGL
Conditions
  • Thunderstorm
  • Rain